Aérodrome :
LOGIN :

S'inscrire | Disclaimer

   EN    FR    IT 

 










Légende :    VFR   VFR Marginal   IFR   IFR Intensif   IFR Très Intensif
Visi : 
Plafond : 
>= 8 km
>= 3000ft
5 à 8 km
1000 à 3000 ft
1500m à 5 km
500 à 1000 ft
800 à 1500m
200 à 500 ft
< 800m
< 200 ft
Symboles :   Orages  Brouillard  Fortes neiges  Fortes précipitations  Vent > 20 kt
SIGMETs :   Divers  Orages  Givrage  Turbulence  Onde Orograph.  Cendres Volcan.







- Altitude de l'aérodrome : 13 ft
- Code IATA : CEQ
- Voir les cartes d'approche


LFMD - Cannes Mandelieu

DERNIER METAR :
  • 191030Z AUTO 06008KT 020V120 9999 BKN029 22/14 Q1017 TEMPO BKN014

METARs EXPIRÉS :
  • 191000Z AUTO 06005KT 350V130 9999 FEW028 21/15 Q1017 NOSIG
  • 190930Z AUTO 07006KT 010V160 CAVOK 21/13 Q1017 NOSIG
  • 190900Z AUTO 04006KT 350V120 CAVOK 20/13 Q1016 NOSIG
  • 190830Z AUTO 03004KT 320V120 CAVOK 20/13 Q1017 NOSIG
  • 190800Z AUTO 03005KT 330V100 CAVOK 19/13 Q1017 BECMG 04015KT

TAF TAF LFMD
Valide du 19 à 09h jusqu'au 20 à 09h UTC


190800Z 1909/2009 04010KT 9999 FEW020
TEMPO 1912/1916 06015KT BKN014
BECMG 2000/2002 VRB03KT
BECMG 2007/2009 11010KT
ATIS : +33 4 93 48 73 23
Pas de NOTAMs connus pour ce terrain.
3 SIGMETs publiés pour la FIR Marseille (LFMM) :
 
Annulation du SIGMET 7 
LFMM SIGMET 9 VALID 191025/191200 LFPW
LFMM MARSEILLE FIR/UIR CNL SIGMET 7 191000/191200=
Orages noyés dans la masse
LFMM SIGMET 8 VALID 191025/191200 LFPW
LFMM MARSEILLE FIR/UIR EMBD TS OBS WI N3900 E00600 - N3900 E00430 - N4200 E00430 - N4215 E00245 - N4345 E00245 - N4315 E00445 - N4045 E00600 TOP FL360 STNR NC=
SIGMET 7  ANNULÉ :
Orages noyés dans la masse
LFMM SIGMET 7 VALID 191000/191200 LFPW
LFMM MARSEILLE FIR/UIR EMBD TS OBS WI N3900 E00600 - N3900 E00430 - N4200 E00430 - N4215 E00315 - N4230 E00315 - N4215 E00445 - N4045 E00600 TOP FL360 STNR NC=



MET'MAP, la Météo Aéronautique d'un coup d'oeil ! - Copyright ORBIFLY Décembre 2007 - Disclaimer

ORBIFLY MET'MAP TEAM :

Programmation & Développement : Alexandra Zaïnal
Conception & Développement : Baudouin d'Aumeries
Co-Programmation & Développement : Marc-Olivier Méhu
Soutien technique & logistique : Manuel Goepfert

Contact : metmap@orbifly.com




SOURCES & CREDITS :

   NOAA